createdAt,value
2023-03-19T00:03:39.687Z,53.50
2023-03-19T00:09:00.718Z,53.66
2023-03-19T00:14:21.466Z,53.52
2023-03-19T00:19:42.243Z,53.32
2023-03-19T00:25:03.399Z,53.50
2023-03-19T00:30:24.772Z,53.12
2023-03-19T00:35:46.289Z,53.31
2023-03-19T00:41:07.516Z,52.98
2023-03-19T00:46:28.576Z,53.49
2023-03-19T00:51:49.305Z,53.18
2023-03-19T00:57:10.220Z,52.86
2023-03-19T01:02:32.215Z,52.69
2023-03-19T01:07:53.174Z,52.89
2023-03-19T01:13:14.762Z,52.78
2023-03-19T01:18:36.303Z,52.69
2023-03-19T01:23:57.974Z,52.75
2023-03-19T01:29:20.266Z,52.77
2023-03-19T01:34:41.187Z,52.97
2023-03-19T01:40:05.979Z,53.34
2023-03-19T01:45:41.294Z,53.85
2023-03-19T01:51:36.096Z,53.41
2023-03-19T01:57:05.787Z,53.35
2023-03-19T02:02:48.609Z,53.74
2023-03-19T02:08:23.780Z,53.82
2023-03-19T02:13:45.211Z,53.77
2023-03-19T02:19:13.358Z,53.94
2023-03-19T02:24:41.790Z,53.50
2023-03-19T02:30:25.660Z,54.09
2023-03-19T02:35:52.121Z,53.70
2023-03-19T02:41:13.396Z,54.00
2023-03-19T02:46:34.207Z,53.77
2023-03-19T02:51:55.137Z,53.99
2023-03-19T02:57:16.511Z,54.13
2023-03-19T03:02:38.603Z,53.38
2023-03-19T03:08:00.118Z,53.67
2023-03-19T03:13:21.374Z,53.66
2023-03-19T03:18:42.420Z,53.45
2023-03-19T03:24:04.166Z,53.49
2023-03-19T03:29:25.050Z,53.45
2023-03-19T03:34:46.477Z,53.50
2023-03-19T03:40:09.666Z,53.25
2023-03-19T03:45:31.048Z,53.82
2023-03-19T03:50:51.793Z,53.89
2023-03-19T03:56:17.755Z,53.38
2023-03-19T04:01:39.022Z,53.43
2023-03-19T04:06:59.868Z,53.46
2023-03-19T04:12:37.855Z,53.23
2023-03-19T04:17:58.608Z,53.66
2023-03-19T04:23:19.686Z,53.16
2023-03-19T04:28:40.611Z,52.96
2023-03-19T04:34:01.250Z,52.88
2023-03-19T04:39:22.784Z,53.12
2023-03-19T04:44:46.150Z,53.58
2023-03-19T04:50:09.440Z,53.38
2023-03-19T04:55:30.166Z,53.12
2023-03-19T05:01:09.728Z,53.10
2023-03-19T05:07:05.791Z,53.15
2023-03-19T05:12:27.136Z,53.21
2023-03-19T05:17:51.224Z,53.37
2023-03-19T05:23:24.050Z,53.02
2023-03-19T05:28:53.445Z,52.77
2023-03-19T05:34:24.600Z,52.95
2023-03-19T05:39:46.091Z,53.05
2023-03-19T05:45:08.489Z,52.87
2023-03-19T05:50:35.288Z,52.46
2023-03-19T05:56:12.201Z,52.67
2023-03-19T06:01:46.564Z,53.05
2023-03-19T06:07:07.704Z,52.99
2023-03-19T06:12:31.202Z,53.17
2023-03-19T06:18:24.150Z,52.91
2023-03-19T06:23:45.763Z,53.12
2023-03-19T06:29:10.778Z,53.41
2023-03-19T06:34:33.547Z,53.78
2023-03-19T06:39:55.565Z,53.73
2023-03-19T06:45:18.933Z,53.90
2023-03-19T06:50:40.470Z,54.11
2023-03-19T06:56:01.551Z,53.68
2023-03-19T07:01:23.309Z,54.09
2023-03-19T07:06:44.204Z,53.37
2023-03-19T07:12:04.998Z,53.53
2023-03-19T07:17:26.028Z,53.77
2023-03-19T07:22:46.661Z,53.64
2023-03-19T07:28:07.500Z,53.69
2023-03-19T07:33:28.130Z,56.07
2023-03-19T07:38:48.821Z,54.11
2023-03-19T07:44:09.544Z,54.12
2023-03-19T07:49:30.370Z,53.86
2023-03-19T07:54:52.433Z,54.04
2023-03-19T08:00:14.625Z,54.06
2023-03-19T08:05:37.745Z,53.77
2023-03-19T08:10:58.618Z,53.70
2023-03-19T08:16:19.290Z,54.13
2023-03-19T08:21:40.133Z,54.11
2023-03-19T08:27:01.267Z,53.28
2023-03-19T08:32:22.001Z,53.50
2023-03-19T08:37:42.952Z,53.23
2023-03-19T08:43:04.172Z,53.14
2023-03-19T08:48:25.340Z,53.20
2023-03-19T08:53:46.567Z,53.49
2023-03-19T08:59:07.992Z,53.30
2023-03-19T09:04:29.122Z,52.84
2023-03-19T09:09:49.886Z,52.67
2023-03-19T09:15:10.986Z,52.68
2023-03-19T09:20:31.583Z,52.30
2023-03-19T09:25:52.690Z,52.67
2023-03-19T09:31:13.698Z,52.09
2023-03-19T09:36:35.031Z,51.83
2023-03-19T09:42:13.455Z,51.91
2023-03-19T09:47:37.665Z,54.10
2023-03-19T09:53:10.310Z,52.39
2023-03-19T09:58:34.619Z,52.20
2023-03-19T10:04:32.922Z,51.55
2023-03-19T10:10:15.046Z,51.34
2023-03-19T10:15:38.432Z,51.18
2023-03-19T10:21:19.172Z,51.32
2023-03-19T10:26:39.675Z,51.20
2023-03-19T10:32:12.889Z,50.90
2023-03-19T10:37:35.687Z,51.90
2023-03-19T10:43:03.825Z,51.33
2023-03-19T10:48:29.336Z,50.96
2023-03-19T10:53:53.052Z,51.10
2023-03-19T10:59:27.038Z,51.07
2023-03-19T11:04:47.893Z,50.57
2023-03-19T11:10:16.352Z,50.85
2023-03-19T11:15:38.717Z,50.43
2023-03-19T11:21:05.436Z,50.68
2023-03-19T11:26:28.697Z,50.92
2023-03-19T11:32:21.573Z,50.67
2023-03-19T11:37:49.397Z,50.59
2023-03-19T11:43:25.079Z,50.13
2023-03-19T11:49:04.184Z,50.06
2023-03-19T11:54:40.741Z,50.11
2023-03-19T12:00:36.764Z,50.23
2023-03-19T12:06:25.173Z,50.07
2023-03-19T12:12:26.629Z,49.98
2023-03-19T12:18:21.660Z,50.22
2023-03-19T12:23:59.382Z,50.37
2023-03-19T12:29:36.564Z,49.78
2023-03-19T12:35:08.972Z,50.07
2023-03-19T12:40:37.484Z,50.00
2023-03-19T12:46:07.012Z,50.29
2023-03-19T12:51:35.591Z,49.39
2023-03-19T12:57:22.801Z,49.68
2023-03-19T13:03:06.179Z,49.64
2023-03-19T13:08:42.466Z,49.24
2023-03-19T13:14:14.409Z,49.25
2023-03-19T13:19:42.239Z,49.22
2023-03-19T13:25:05.770Z,50.03
2023-03-19T13:30:26.979Z,49.03
2023-03-19T13:35:52.019Z,48.81
2023-03-19T13:41:34.759Z,49.20
2023-03-19T13:46:55.803Z,49.09
2023-03-19T13:52:16.287Z,48.92
2023-03-19T13:57:39.298Z,48.94
2023-03-19T14:03:00.521Z,49.08
2023-03-19T14:08:28.478Z,49.17
2023-03-19T14:13:52.542Z,49.53
2023-03-19T14:19:18.500Z,49.28
2023-03-19T14:24:58.501Z,49.26
2023-03-19T14:30:26.089Z,49.62
2023-03-19T14:35:50.064Z,49.69
2023-03-19T14:41:17.412Z,49.42
2023-03-19T14:47:08.779Z,49.66
2023-03-19T14:52:35.136Z,50.00
2023-03-19T14:57:56.716Z,50.08
2023-03-19T15:03:32.038Z,50.17
2023-03-19T15:08:52.754Z,50.12
2023-03-19T15:14:48.907Z,50.28
2023-03-19T15:20:20.807Z,50.43
2023-03-19T15:25:57.020Z,50.10
2023-03-19T15:31:31.752Z,50.00
2023-03-19T15:37:03.194Z,50.49
2023-03-19T15:42:27.579Z,50.49
2023-03-19T15:48:02.610Z,50.48
2023-03-19T15:53:27.449Z,51.00
2023-03-19T15:58:53.281Z,51.25
2023-03-19T16:04:23.359Z,51.78
2023-03-19T16:09:44.305Z,51.82
2023-03-19T16:15:21.977Z,52.04
2023-03-19T16:20:45.978Z,52.33
2023-03-19T16:26:36.118Z,52.74
2023-03-19T16:32:04.166Z,52.35
2023-03-19T16:37:27.819Z,52.12
2023-03-19T16:42:54.124Z,51.91
2023-03-19T16:48:14.759Z,52.81
2023-03-19T16:53:36.097Z,53.23
2023-03-19T16:58:56.993Z,53.49
2023-03-19T17:04:17.921Z,54.29
2023-03-19T17:09:39.083Z,55.12
2023-03-19T17:14:59.924Z,55.82
2023-03-19T17:20:24.100Z,56.38
2023-03-19T17:25:45.652Z,56.67
2023-03-19T17:31:18.973Z,56.54
2023-03-19T17:36:40.329Z,56.71
2023-03-19T17:42:01.114Z,56.97
2023-03-19T17:47:22.067Z,56.93
2023-03-19T17:52:45.235Z,57.05
2023-03-19T17:58:18.323Z,57.48
2023-03-19T18:03:38.852Z,57.30
2023-03-19T18:08:59.798Z,57.82
2023-03-19T18:14:20.903Z,58.31
2023-03-19T18:19:45.197Z,58.62
2023-03-19T18:25:06.640Z,58.84
2023-03-19T18:30:30.667Z,59.30
2023-03-19T18:35:53.716Z,59.20
2023-03-19T18:41:22.660Z,59.30
2023-03-19T18:46:57.083Z,59.99
2023-03-19T18:52:19.612Z,59.42
2023-03-19T18:57:54.884Z,59.81
2023-03-19T19:03:18.441Z,59.88
2023-03-19T19:08:39.280Z,60.18
2023-03-19T19:14:01.212Z,60.49
2023-03-19T19:19:25.080Z,60.51
2023-03-19T19:24:46.677Z,60.33
2023-03-19T19:30:15.731Z,60.28
2023-03-19T19:35:36.903Z,60.43
2023-03-19T19:41:00.442Z,61.00
2023-03-19T19:46:23.758Z,60.88
2023-03-19T19:51:44.348Z,60.64
2023-03-19T19:57:27.073Z,60.84
2023-03-19T20:02:48.607Z,60.91
2023-03-19T20:08:11.943Z,60.85
2023-03-19T20:13:34.926Z,61.23
2023-03-19T20:18:55.926Z,61.42
2023-03-19T20:24:16.970Z,61.39
2023-03-19T20:29:40.121Z,61.46
2023-03-19T20:35:01.197Z,61.31
2023-03-19T20:40:25.664Z,60.96
2023-03-19T20:45:47.165Z,61.18
2023-03-19T20:51:18.698Z,61.00
2023-03-19T20:56:41.967Z,61.17
2023-03-19T21:02:03.181Z,61.22
2023-03-19T21:07:35.436Z,61.77
2023-03-19T21:12:57.753Z,61.87
2023-03-19T21:18:18.691Z,62.30
2023-03-19T21:23:42.050Z,61.96
2023-03-19T21:29:08.194Z,62.25
2023-03-19T21:34:29.513Z,62.16
2023-03-19T21:39:50.802Z,62.70
2023-03-19T21:45:22.175Z,62.71
2023-03-19T21:50:43.283Z,63.19
2023-03-19T21:56:04.127Z,63.03
2023-03-19T22:01:25.478Z,62.93
2023-03-19T22:06:46.840Z,63.40
2023-03-19T22:12:27.563Z,63.25
2023-03-19T22:17:49.911Z,63.18
2023-03-19T22:23:13.746Z,63.60
2023-03-19T22:28:35.046Z,63.90
2023-03-19T22:33:56.091Z,63.55
2023-03-19T22:39:17.725Z,63.74
2023-03-19T22:44:38.403Z,63.65
2023-03-19T22:49:59.475Z,63.94
2023-03-19T22:55:21.159Z,63.41
2023-03-19T23:00:42.335Z,63.77
2023-03-19T23:06:28.808Z,63.53
2023-03-19T23:11:52.695Z,63.61
2023-03-19T23:17:17.606Z,63.65
2023-03-19T23:22:38.721Z,64.00
2023-03-19T23:28:02.137Z,63.65
2023-03-19T23:33:26.815Z,63.92
2023-03-19T23:38:47.665Z,64.27
2023-03-19T23:44:13.729Z,64.36
2023-03-19T23:49:34.689Z,64.54
2023-03-19T23:54:57.025Z,63.88
